createdAt,value
2018-06-08T00:00:59.391Z,50.80
2018-06-08T00:03:29.301Z,50.60
2018-06-08T00:05:59.217Z,50.70
2018-06-08T00:08:28.926Z,50.50
2018-06-08T00:10:59.044Z,50.90
2018-06-08T00:13:28.971Z,50.90
2018-06-08T00:15:58.669Z,50.70
2018-06-08T00:18:28.379Z,50.80
2018-06-08T00:20:58.301Z,51.20
2018-06-08T00:23:28.004Z,51.30
2018-06-08T00:25:57.713Z,50.90
2018-06-08T00:28:27.632Z,51.10
2018-06-08T00:30:58.360Z,51.20
2018-06-08T00:33:28.070Z,51.30
2018-06-08T00:35:57.983Z,51.30
2018-06-08T00:38:27.694Z,51.30
2018-06-08T00:40:57.404Z,51.60
2018-06-08T00:43:27.329Z,51.30
2018-06-08T00:45:57.232Z,51.30
2018-06-08T00:48:26.943Z,51.40
2018-06-08T00:50:57.479Z,51.40
2018-06-08T00:53:27.183Z,51.20
2018-06-08T00:55:57.070Z,51.30
2018-06-08T00:58:27.624Z,51.20
2018-06-08T01:00:57.483Z,51.40
2018-06-08T01:06:27.269Z,51.30
2018-06-08T01:08:57.183Z,51.40
2018-06-08T01:11:26.893Z,51.40
2018-06-08T01:13:56.602Z,51.40
2018-06-08T01:16:26.311Z,51.40
2018-06-08T01:18:56.226Z,51.40
2018-06-08T01:21:25.933Z,51.40
2018-06-08T01:23:55.647Z,51.40
2018-06-08T01:26:25.356Z,51.60
2018-06-08T01:28:55.268Z,51.50
2018-06-08T01:31:25.387Z,51.40
2018-06-08T01:33:55.916Z,51.40
2018-06-08T01:36:25.625Z,51.60
2018-06-08T01:38:55.338Z,51.40
2018-06-08T01:41:25.045Z,51.40
2018-06-08T01:43:54.755Z,51.50
2018-06-08T01:46:24.466Z,51.60
2018-06-08T01:48:54.173Z,51.50
2018-06-08T01:51:25.103Z,51.40
2018-06-08T01:53:55.026Z,51.60
2018-06-08T01:56:24.736Z,51.70
2018-06-08T01:58:54.445Z,51.70
2018-06-08T02:01:24.157Z,51.70
2018-06-08T02:03:54.075Z,51.80
2018-06-08T02:06:24.189Z,51.80
2018-06-08T02:08:55.129Z,51.70
2018-06-08T02:11:24.836Z,51.60
2018-06-08T02:13:54.753Z,52.00
2018-06-08T02:16:25.465Z,51.90
2018-06-08T02:18:55.809Z,52.10
2018-06-08T02:21:25.518Z,52.10
2018-06-08T02:23:55.229Z,52.20
2018-06-08T02:26:25.143Z,52.20
2018-06-08T02:28:55.058Z,52.30
2018-06-08T02:31:24.767Z,52.10
2018-06-08T02:33:55.502Z,52.10
2018-06-08T02:36:25.417Z,52.40
2018-06-08T02:38:55.124Z,52.30
2018-06-08T02:41:25.042Z,52.50
2018-06-08T02:43:54.954Z,52.50
2018-06-08T02:46:25.687Z,52.40
2018-06-08T02:48:55.578Z,52.50
2018-06-08T02:51:25.495Z,52.60
2018-06-08T02:53:56.045Z,52.60
2018-06-08T02:56:25.755Z,52.60
2018-06-08T02:58:56.080Z,52.60
2018-06-08T03:01:25.791Z,52.70
2018-06-08T03:03:55.499Z,52.70
2018-06-08T03:06:25.412Z,52.80
2018-06-08T03:08:55.122Z,52.70
2018-06-08T03:11:25.048Z,52.80
2018-06-08T03:13:54.745Z,52.80
2018-06-08T03:16:24.846Z,52.90
2018-06-08T03:18:54.780Z,52.70
2018-06-08T03:21:25.119Z,52.60
2018-06-08T03:23:55.018Z,52.70
2018-06-08T03:26:24.933Z,52.70
2018-06-08T03:28:54.846Z,52.70
2018-06-08T03:31:24.761Z,52.80
2018-06-08T03:33:55.498Z,52.90
2018-06-08T03:36:25.212Z,52.90
2018-06-08T03:38:54.913Z,53.10
2018-06-08T03:41:24.623Z,53.20
2018-06-08T03:43:55.355Z,53.20
2018-06-08T03:46:25.074Z,53.30
2018-06-08T03:48:54.998Z,53.30
2018-06-08T03:51:24.895Z,53.60
2018-06-08T03:53:54.819Z,53.50
2018-06-08T03:56:24.727Z,53.80
2018-06-08T03:58:54.637Z,53.90
2018-06-08T04:01:24.966Z,53.90
2018-06-08T04:03:55.059Z,54.00
2018-06-08T04:06:26.025Z,53.90
2018-06-08T04:08:55.906Z,54.20
2018-06-08T04:11:25.643Z,54.20
2018-06-08T04:13:55.967Z,54.30
2018-06-08T04:16:25.882Z,54.20
2018-06-08T04:18:55.995Z,54.30
2018-06-08T04:21:25.714Z,54.50
2018-06-08T04:23:55.737Z,54.60
2018-06-08T04:26:25.543Z,54.70
2018-06-08T04:28:55.453Z,54.80
2018-06-08T04:31:25.169Z,55.40
2018-06-08T04:33:54.873Z,54.90
2018-06-08T04:36:25.613Z,55.10
2018-06-08T04:38:55.493Z,55.10
2018-06-08T04:41:25.438Z,55.20
2018-06-08T04:43:55.349Z,55.30
2018-06-08T04:46:25.268Z,55.40
2018-06-08T04:48:54.982Z,55.50
2018-06-08T04:51:24.684Z,55.80
2018-06-08T04:53:54.585Z,55.60
2018-06-08T04:56:24.306Z,55.90
2018-06-08T04:58:54.997Z,62.00
2018-06-08T05:01:31.304Z,62.70
2018-06-08T05:04:01.014Z,60.40
2018-06-08T05:06:31.003Z,59.30
2018-06-08T05:09:01.046Z,59.00
2018-06-08T05:11:30.761Z,58.90
2018-06-08T05:14:00.877Z,58.70
2018-06-08T05:16:30.996Z,59.30
2018-06-08T05:19:00.706Z,58.60
2018-06-08T05:21:30.824Z,58.60
2018-06-08T05:24:00.737Z,58.50
2018-06-08T05:26:30.631Z,58.50
2018-06-08T05:29:00.362Z,58.50
2018-06-08T05:31:30.458Z,58.40
2018-06-08T05:34:00.190Z,58.40
2018-06-08T05:36:30.315Z,58.40
2018-06-08T05:39:00.020Z,58.40
2018-06-08T05:41:29.937Z,58.50
2018-06-08T05:43:59.847Z,58.60
2018-06-08T05:46:30.582Z,58.80
2018-06-08T05:49:00.495Z,58.70
2018-06-08T05:51:30.209Z,58.80
2018-06-08T05:53:59.916Z,58.70
2018-06-08T05:56:30.443Z,58.90
2018-06-08T05:59:00.770Z,58.80
2018-06-08T06:01:31.302Z,58.90
2018-06-08T06:04:01.214Z,58.80
2018-06-08T06:06:30.923Z,58.80
2018-06-08T06:09:00.835Z,59.10
2018-06-08T06:11:33.616Z,59.00
2018-06-08T06:14:03.983Z,59.50
2018-06-08T06:16:33.836Z,59.00
2018-06-08T06:19:03.565Z,59.00
2018-06-08T06:21:33.275Z,59.10
2018-06-08T06:24:02.985Z,59.20
2018-06-08T06:26:33.513Z,59.10
2018-06-08T06:29:04.247Z,59.20
2018-06-08T06:32:53.192Z,59.10
2018-06-08T06:35:23.074Z,59.20
2018-06-08T06:37:53.452Z,59.20
2018-06-08T06:40:23.162Z,59.40
2018-06-08T06:42:53.900Z,59.30
2018-06-08T06:45:24.423Z,59.40
2018-06-08T06:47:54.349Z,59.60
2018-06-08T06:50:24.047Z,59.60
2018-06-08T06:52:53.758Z,59.50
2018-06-08T06:55:23.672Z,59.60
2018-06-08T06:57:53.385Z,59.50
2018-06-08T07:00:23.191Z,59.50
2018-06-08T07:02:54.234Z,59.40
2018-06-08T07:05:24.355Z,59.30
2018-06-08T07:07:54.268Z,59.40
2018-06-08T07:10:24.182Z,59.40
2018-06-08T07:12:55.121Z,59.40
2018-06-08T07:15:25.578Z,59.30
2018-06-08T07:20:25.071Z,59.20
2018-06-08T07:22:55.596Z,59.20
2018-06-08T07:25:25.511Z,59.10
2018-06-08T07:27:55.220Z,59.10
2018-06-08T07:30:24.931Z,59.20
2018-06-08T07:32:55.463Z,59.10
2018-06-08T07:35:25.990Z,58.90
2018-06-08T07:37:56.161Z,58.90
2018-06-08T07:40:26.024Z,58.80
2018-06-08T07:42:56.256Z,58.90
2018-06-08T07:45:26.246Z,58.90
2018-06-08T07:47:57.609Z,58.80
2018-06-08T07:50:27.728Z,58.80
2018-06-08T07:52:57.641Z,58.90
2018-06-08T07:55:27.540Z,58.90
2018-06-08T07:57:57.415Z,58.70
2018-06-08T08:00:27.388Z,58.70
2018-06-08T08:02:57.300Z,59.40
2018-06-08T08:05:27.213Z,58.80
2018-06-08T08:07:57.290Z,58.50
2018-06-08T08:10:28.247Z,58.60
2018-06-08T08:12:57.982Z,58.60
2018-06-08T08:15:28.091Z,58.60
2018-06-08T08:17:58.227Z,58.50
2018-06-08T08:20:28.338Z,58.40
2018-06-08T08:22:59.073Z,58.30
2018-06-08T08:25:28.988Z,58.40
2018-06-08T08:28:00.265Z,58.30
2018-06-08T08:30:30.253Z,58.20
2018-06-08T08:33:02.007Z,58.20
2018-06-08T08:35:31.921Z,58.20
2018-06-08T08:38:01.837Z,58.30
2018-06-08T08:40:31.752Z,58.20
2018-06-08T08:43:01.780Z,58.40
2018-06-08T08:45:31.784Z,58.40
2018-06-08T08:48:01.700Z,58.50
2018-06-08T08:50:31.616Z,58.40
2018-06-08T08:53:01.322Z,58.50
2018-06-08T08:55:31.236Z,58.50
2018-06-08T08:58:01.152Z,58.50
2018-06-08T09:00:33.532Z,58.40
2018-06-08T09:03:04.461Z,58.40
2018-06-08T09:05:34.581Z,58.40
2018-06-08T09:08:04.496Z,58.40
2018-06-08T09:10:35.048Z,58.20
2018-06-08T09:13:04.938Z,58.20
2018-06-08T09:15:34.853Z,58.30
2018-06-08T09:18:04.959Z,58.30
2018-06-08T09:20:34.897Z,58.00
2018-06-08T09:23:04.801Z,57.90
2018-06-08T09:25:34.715Z,57.90
2018-06-08T09:28:04.630Z,57.80
2018-06-08T09:30:34.535Z,57.70
2018-06-08T09:33:04.874Z,57.80
2018-06-08T09:35:34.578Z,57.70
2018-06-08T09:38:05.107Z,57.70
2018-06-08T09:40:34.818Z,57.70
2018-06-08T09:43:04.732Z,57.70
2018-06-08T09:45:34.449Z,57.60
2018-06-08T09:48:04.357Z,57.60
2018-06-08T09:50:34.270Z,57.30
2018-06-08T09:53:04.337Z,57.30
2018-06-08T09:55:34.508Z,57.30
2018-06-08T09:58:04.424Z,57.20
2018-06-08T10:00:39.661Z,57.00
2018-06-08T10:03:09.989Z,56.90
2018-06-08T10:05:40.107Z,56.50
2018-06-08T10:08:10.020Z,56.70
2018-06-08T10:10:40.914Z,56.70
2018-06-08T10:13:10.873Z,56.60
2018-06-08T10:15:41.093Z,52.90
2018-06-08T10:18:11.077Z,53.60
2018-06-08T10:20:41.026Z,53.80
2018-06-08T10:23:10.942Z,53.40
2018-06-08T10:25:40.812Z,53.60
2018-06-08T10:28:10.716Z,53.10
2018-06-08T10:30:41.666Z,52.90
2018-06-08T10:33:11.418Z,53.10
2018-06-08T10:35:41.538Z,53.40
2018-06-08T10:38:11.912Z,53.50
2018-06-08T10:40:41.776Z,53.60
2018-06-08T10:43:11.698Z,53.40
2018-06-08T10:45:41.710Z,53.20
2018-06-08T10:48:11.929Z,53.50
2018-06-08T10:50:41.843Z,53.50
2018-06-08T10:53:11.747Z,53.30
2018-06-08T10:55:41.467Z,53.40
2018-06-08T10:58:11.383Z,53.30
2018-06-08T11:00:41.649Z,52.70
2018-06-08T11:03:11.827Z,53.00
2018-06-08T11:05:41.741Z,53.10
2018-06-08T11:08:11.654Z,51.80
2018-06-08T11:10:41.569Z,51.40
2018-06-08T11:13:11.508Z,52.50
2018-06-08T11:15:41.407Z,52.60
2018-06-08T11:18:11.525Z,52.70
2018-06-08T11:20:41.637Z,52.40
2018-06-08T11:23:11.710Z,51.80
2018-06-08T11:25:42.071Z,52.10
2018-06-08T11:28:11.998Z,51.00
2018-06-08T11:30:41.902Z,51.20
2018-06-08T11:33:11.739Z,46.90
2018-06-08T11:35:41.534Z,44.10
2018-06-08T11:38:11.450Z,43.40
2018-06-08T11:40:41.377Z,43.00
2018-06-08T11:43:12.097Z,43.90
2018-06-08T11:45:41.968Z,41.40
2018-06-08T11:48:11.929Z,40.60
2018-06-08T11:50:41.842Z,42.00
2018-06-08T11:53:11.787Z,41.50
2018-06-08T11:55:41.875Z,41.60
2018-06-08T11:58:11.782Z,43.00
2018-06-08T12:00:41.692Z,43.00
2018-06-08T12:03:11.739Z,42.90
2018-06-08T12:08:11.038Z,41.70
2018-06-08T12:10:40.959Z,41.70
2018-06-08T12:13:11.483Z,41.70
2018-06-08T12:15:41.559Z,41.90
2018-06-08T12:18:11.560Z,42.00
2018-06-08T12:20:41.430Z,42.10
2018-06-08T12:23:11.346Z,39.00
2018-06-08T12:25:41.278Z,40.50
2018-06-08T12:28:11.388Z,41.70
2018-06-08T12:30:41.722Z,40.80
2018-06-08T12:33:11.617Z,42.00
2018-06-08T12:35:41.735Z,41.00
2018-06-08T12:38:11.650Z,40.70
2018-06-08T12:40:41.565Z,40.50
2018-06-08T12:43:11.486Z,39.40
2018-06-08T12:45:41.600Z,40.40
2018-06-08T12:48:11.515Z,41.20
2018-06-08T12:50:41.431Z,41.20
2018-06-08T12:53:11.548Z,39.70
2018-06-08T12:55:41.480Z,40.30
2018-06-08T12:58:11.590Z,40.20
2018-06-08T13:00:42.111Z,39.40
2018-06-08T13:03:12.047Z,39.40
2018-06-08T13:05:41.943Z,40.70
2018-06-08T13:08:12.472Z,40.00
2018-06-08T13:10:42.535Z,37.60
2018-06-08T13:13:12.486Z,39.30
2018-06-08T13:15:42.680Z,39.20
2018-06-08T13:18:12.818Z,39.40
2018-06-08T13:20:42.655Z,38.50
2018-06-08T13:23:12.570Z,38.80
2018-06-08T13:25:42.279Z,39.80
2018-06-08T13:28:12.181Z,39.50
2018-06-08T13:30:42.147Z,38.80
2018-06-08T13:33:12.010Z,40.10
2018-06-08T13:35:41.937Z,38.90
2018-06-08T13:39:14.808Z,38.80
2018-06-08T13:41:44.721Z,38.40
2018-06-08T13:44:14.863Z,38.60
2018-06-08T13:46:46.214Z,38.80
2018-06-08T13:49:16.130Z,38.50
2018-06-08T13:51:46.246Z,39.10
2018-06-08T13:54:16.160Z,39.40
2018-06-08T13:56:46.849Z,38.90
2018-06-08T13:59:16.839Z,38.50
2018-06-08T14:01:46.926Z,39.40
2018-06-08T14:04:17.035Z,39.30
2018-06-08T14:06:46.951Z,37.90
2018-06-08T14:09:17.074Z,38.90
2018-06-08T14:11:47.199Z,39.70
2018-06-08T14:14:17.113Z,39.00
2018-06-08T14:16:47.031Z,39.70
2018-06-08T14:19:16.931Z,39.20
2018-06-08T14:21:47.048Z,39.70
2018-06-08T14:24:16.975Z,39.90
2018-06-08T14:26:46.890Z,39.60
2018-06-08T14:29:16.804Z,40.60
2018-06-08T14:31:46.946Z,40.70
2018-06-08T14:34:17.454Z,40.60
2018-06-08T14:36:48.801Z,40.90
2018-06-08T14:39:18.718Z,41.20
2018-06-08T14:41:49.044Z,41.40
2018-06-08T14:44:18.955Z,40.80
2018-06-08T14:46:49.280Z,39.80
2018-06-08T14:49:19.398Z,41.00
2018-06-08T14:51:49.189Z,40.90
2018-06-08T14:54:20.799Z,41.10
2018-06-08T14:56:50.577Z,41.40
2018-06-08T14:59:21.034Z,40.70
2018-06-08T15:04:20.884Z,41.10
2018-06-08T15:06:51.872Z,41.10
2018-06-08T15:09:21.997Z,40.20
2018-06-08T15:11:51.907Z,41.00
2018-06-08T15:14:21.712Z,40.80
2018-06-08T15:16:52.321Z,41.90
2018-06-08T15:19:22.435Z,40.70
2018-06-08T15:21:52.574Z,39.80
2018-06-08T15:24:22.503Z,40.50
2018-06-08T15:26:52.736Z,41.40
2018-06-08T15:29:22.762Z,40.90
2018-06-08T15:31:53.273Z,41.60
2018-06-08T15:34:23.801Z,40.70
2018-06-08T15:36:54.073Z,41.20
2018-06-08T15:39:24.243Z,41.00
2018-06-08T15:41:54.980Z,40.70
2018-06-08T15:44:27.145Z,41.40
2018-06-08T15:46:57.472Z,41.10
2018-06-08T15:49:27.817Z,41.60
2018-06-08T15:51:57.926Z,41.40
2018-06-08T15:54:27.827Z,42.60
2018-06-08T15:56:57.740Z,42.70
2018-06-08T15:59:28.475Z,42.40
2018-06-08T16:01:58.598Z,43.00
2018-06-08T16:04:28.500Z,43.60
2018-06-08T16:06:58.423Z,43.00
2018-06-08T16:09:28.539Z,43.50
2018-06-08T16:11:58.671Z,43.60
2018-06-08T16:14:29.311Z,44.10
2018-06-08T16:19:29.837Z,45.50
2018-06-08T16:21:59.976Z,46.00
2018-06-08T16:24:29.875Z,46.20
2018-06-08T16:26:59.794Z,46.60
2018-06-08T16:29:30.316Z,46.70
2018-06-08T16:32:00.376Z,46.90
2018-06-08T16:34:30.358Z,47.00
2018-06-08T16:37:00.062Z,47.20
2018-06-08T16:39:30.170Z,47.40
2018-06-08T16:41:59.891Z,47.40
2018-06-08T16:44:29.814Z,47.70
2018-06-08T16:46:59.720Z,47.70
2018-06-08T16:49:29.839Z,47.80
2018-06-08T16:51:59.751Z,48.00
2018-06-08T16:54:29.462Z,48.20
2018-06-08T16:56:59.990Z,48.30
2018-06-08T16:59:30.120Z,48.30
2018-06-08T17:02:00.030Z,48.50
2018-06-08T17:04:29.942Z,48.50
2018-06-08T17:06:59.854Z,48.70
2018-06-08T17:09:29.772Z,48.70
2018-06-08T17:11:59.888Z,48.80
2018-06-08T17:14:30.216Z,49.00
2018-06-08T17:17:00.340Z,49.10
2018-06-08T17:19:30.578Z,49.10
2018-06-08T17:22:00.369Z,49.20
2018-06-08T17:24:31.102Z,49.30
2018-06-08T17:27:01.222Z,49.30
2018-06-08T17:29:31.230Z,49.50
2018-06-08T17:32:02.688Z,49.40
2018-06-08T17:34:32.807Z,49.50
2018-06-08T17:37:03.130Z,49.30
2018-06-08T17:39:33.045Z,49.40
2018-06-08T17:42:03.372Z,49.50
2018-06-08T17:44:33.288Z,49.50
2018-06-08T17:47:04.227Z,49.40
2018-06-08T17:49:34.341Z,49.20
2018-06-08T17:52:04.667Z,48.90
2018-06-08T17:54:34.608Z,49.10
2018-06-08T17:57:05.382Z,49.00
2018-06-08T17:59:36.649Z,49.20
2018-06-08T18:02:06.804Z,49.20
2018-06-08T18:04:36.905Z,49.00
2018-06-08T18:07:06.957Z,49.00
2018-06-08T18:09:37.305Z,48.80
2018-06-08T18:12:07.384Z,49.10
2018-06-08T18:14:37.173Z,48.90
2018-06-08T18:17:07.292Z,49.20
2018-06-08T18:19:37.406Z,48.90
2018-06-08T18:22:07.743Z,49.20
2018-06-08T18:24:38.214Z,49.30
2018-06-08T18:27:08.384Z,49.20
2018-06-08T18:29:39.241Z,49.40
2018-06-08T18:32:09.446Z,49.50
2018-06-08T18:34:39.494Z,49.50
2018-06-08T18:37:09.271Z,49.50
2018-06-08T18:39:39.277Z,49.50
2018-06-08T18:42:09.316Z,49.70
2018-06-08T18:44:39.332Z,49.70
2018-06-08T18:47:09.544Z,49.50
2018-06-08T18:49:39.667Z,49.60
2018-06-08T18:52:09.779Z,49.70
2018-06-08T18:54:40.990Z,49.60
2018-06-08T18:57:11.239Z,49.70
2018-06-08T18:59:41.337Z,49.70
2018-06-08T19:02:11.692Z,49.70
2018-06-08T19:04:41.813Z,49.60
2018-06-08T19:07:11.716Z,49.80
2018-06-08T19:09:41.854Z,49.70
2018-06-08T19:12:12.375Z,49.60
2018-06-08T19:14:42.501Z,49.60
2018-06-08T19:17:12.412Z,49.80
2018-06-08T19:19:42.520Z,49.90
2018-06-08T19:22:12.852Z,49.90
2018-06-08T19:24:43.184Z,49.70
2018-06-08T19:27:13.116Z,49.80
2018-06-08T19:29:43.215Z,50.00
2018-06-08T19:32:13.127Z,50.10
2018-06-08T19:34:43.079Z,50.20
2018-06-08T19:37:13.596Z,50.10
2018-06-08T19:39:43.692Z,50.20
2018-06-08T19:42:13.604Z,50.20
2018-06-08T19:44:43.723Z,50.20
2018-06-08T19:47:14.260Z,50.10
2018-06-08T19:49:44.321Z,50.20
2018-06-08T19:52:14.282Z,50.30
2018-06-08T19:54:43.996Z,50.40
2018-06-08T19:57:13.707Z,50.50
2018-06-08T19:59:43.422Z,50.50
2018-06-08T20:02:13.740Z,50.60
2018-06-08T20:04:43.660Z,50.70
2018-06-08T20:07:13.586Z,50.70
2018-06-08T20:09:43.482Z,50.70
2018-06-08T20:12:13.574Z,50.80
2018-06-08T20:14:43.515Z,50.90
2018-06-08T20:17:13.232Z,51.00
2018-06-08T20:19:43.186Z,51.00
2018-06-08T20:22:14.579Z,51.00
2018-06-08T20:24:44.405Z,51.10
2018-06-08T20:27:14.338Z,51.10
2018-06-08T20:29:44.443Z,51.10
2018-06-08T20:32:14.761Z,51.10
2018-06-08T20:34:44.684Z,51.30
2018-06-08T20:37:14.606Z,51.20
2018-06-08T20:39:45.938Z,51.20
2018-06-08T20:42:16.246Z,51.30
2018-06-08T20:44:46.216Z,51.30
2018-06-08T20:47:16.256Z,51.40
2018-06-08T20:49:46.404Z,51.40
2018-06-08T20:52:16.380Z,51.50
2018-06-08T20:54:46.447Z,51.50
2018-06-08T20:57:28.608Z,51.40
2018-06-08T20:59:58.563Z,51.60
2018-06-08T21:02:57.692Z,51.60
2018-06-08T21:05:29.140Z,51.60
2018-06-08T21:07:59.028Z,51.60
2018-06-08T21:10:29.952Z,51.60
2018-06-08T21:12:59.885Z,51.70
2018-06-08T21:15:30.002Z,51.70
2018-06-08T21:17:59.912Z,51.70
2018-06-08T21:20:29.996Z,51.90
2018-06-08T21:23:01.175Z,51.90
2018-06-08T21:25:31.379Z,51.90
2018-06-08T21:28:02.237Z,52.00
2018-06-08T21:30:33.180Z,52.00
2018-06-08T21:33:03.270Z,52.00
2018-06-08T21:35:33.096Z,52.10
2018-06-08T21:38:03.735Z,52.00
2018-06-08T21:40:34.469Z,52.00
2018-06-08T21:43:04.383Z,52.00
2018-06-08T21:45:34.298Z,52.00
2018-06-08T21:48:04.167Z,52.10
2018-06-08T21:50:33.927Z,52.20
2018-06-08T21:53:03.823Z,52.10
2018-06-08T21:55:34.692Z,52.00
2018-06-08T21:58:04.485Z,52.10
2018-06-08T22:00:34.399Z,52.00
2018-06-08T22:03:04.518Z,52.20
2018-06-08T22:05:34.228Z,52.20
2018-06-08T22:08:04.855Z,52.10
2018-06-08T22:10:35.081Z,52.20
2018-06-08T22:13:05.076Z,52.30
2018-06-08T22:15:35.308Z,52.30
2018-06-08T22:18:05.234Z,52.40
2018-06-08T22:20:35.150Z,52.90
2018-06-08T22:23:05.063Z,52.50
2018-06-08T22:25:35.798Z,52.60
2018-06-08T22:28:05.626Z,52.60
2018-06-08T22:30:35.557Z,52.60
2018-06-08T22:33:05.336Z,52.80
2018-06-08T22:35:35.251Z,52.80
2018-06-08T22:38:05.166Z,52.80
2018-06-08T22:40:35.088Z,52.90
2018-06-08T22:43:04.994Z,52.90
2018-06-08T22:45:35.327Z,53.60
2018-06-08T22:48:05.457Z,53.00
2018-06-08T22:50:35.354Z,53.00
2018-06-08T22:53:05.675Z,53.10
2018-06-08T22:55:35.571Z,53.20
2018-06-08T22:58:05.501Z,53.30
2018-06-08T23:00:36.243Z,53.30
2018-06-08T23:03:07.163Z,53.30
2018-06-08T23:05:36.888Z,53.40
2018-06-08T23:08:07.620Z,53.50
2018-06-08T23:10:37.741Z,53.50
2018-06-08T23:13:07.859Z,53.60
2018-06-08T23:15:37.786Z,53.60
2018-06-08T23:20:37.405Z,53.60
2018-06-08T23:23:08.754Z,53.90
2018-06-08T23:25:38.729Z,53.90
2018-06-08T23:28:08.778Z,54.10
2018-06-08T23:30:38.693Z,53.90
2018-06-08T23:33:09.133Z,54.30
2018-06-08T23:38:09.871Z,54.20
2018-06-08T23:40:39.987Z,54.20
2018-06-08T23:43:10.333Z,54.30
2018-06-08T23:45:40.644Z,54.20
2018-06-08T23:48:11.167Z,54.40
2018-06-08T23:50:41.289Z,54.40
2018-06-08T23:53:11.275Z,54.40
2018-06-08T23:55:42.343Z,54.50
2018-06-08T23:58:12.328Z,54.40
